»·PEaware :: N210AR KSMX-KBFL

N210AR :: KSMX-KBFL

FLIGHT INFORMATION

Flight Status: Arrived
Operator: Privately registered:
United States
More flights under this callsign
Pilot: Max S. (16657)
Aircraft: CESSNA 172 SKYHAWK
(C172)
More flights by this aircraft type
Origin: KSMX Santa Maria Pub/Capt Hancock
United States
Destination: KBFL Meadows
United States
More flights between these airports :: More routes between these airports
Route: KSMX FLW KBFL
File this flight plan on PilotEdge
Remarks:
Altitude:
(Current/Filed)
5,500ft
Speed:
(Current/Filed)
100kts
Departed: 25-Sep-17 07:35 AM
Arrived: 25-Sep-17 08:39 AM
Distance/Time
Traveled:
76nm/1:04
Distance/Time
To Go:
Arrived

Flight Plot

Page will automatically refresh every two minutes.


Map Options




Map Legend


Flown Route
Filed Route
Departure Airport
Arrival Airport
Navaid (VOR, NDB)
Fix

Horizontal Profiles

Position Reports

Time Latitude Longitude Heading Altitude Ground
Speed
25-Sep-17 07:16 34.900574 -120.451306 228 265ft 0kts
25-Sep-17 07:17 34.900574 -120.451306 228 265ft 0kts
25-Sep-17 07:18 34.900574 -120.451306 228 265ft 0kts
25-Sep-17 07:19 34.900574 -120.451306 228 265ft 0kts
25-Sep-17 07:20 34.900574 -120.451306 228 265ft 0kts
25-Sep-17 07:21 34.900574 -120.451306 228 265ft 0kts
25-Sep-17 07:22 34.900574 -120.451307 228 265ft 0kts
25-Sep-17 07:23 34.900574 -120.451307 228 265ft 0kts
25-Sep-17 07:24 34.900574 -120.451307 228 265ft 0kts
25-Sep-17 07:25 34.900574 -120.451307 228 265ft 0kts
25-Sep-17 07:26 34.900574 -120.451307 228 265ft 0kts
25-Sep-17 07:27 34.900574 -120.451307 228 265ft 0kts
25-Sep-17 07:28 34.900574 -120.451307 228 265ft 0kts
25-Sep-17 07:29 34.900574 -120.451307 228 265ft 0kts
25-Sep-17 07:30 34.900555 -120.451327 212 265ft 1kts
25-Sep-17 07:31 34.899506 -120.451244 161 265ft 9kts
25-Sep-17 07:32 34.897566 -120.448986 134 265ft 22kts
25-Sep-17 07:33 34.894258 -120.445005 137 265ft 22kts
25-Sep-17 07:34 34.893518 -120.444718 198 265ft 0kts
25-Sep-17 07:35 34.893519 -120.444718 198 265ft 0kts
25-Sep-17 07:36 34.893519 -120.444718 198 265ft 0kts
25-Sep-17 07:37 34.893257 -120.444817 192 265ft 0kts
25-Sep-17 07:38 34.893257 -120.444817 192 265ft 0kts
25-Sep-17 07:39 34.893604 -120.446743 317 265ft 43kts
25-Sep-17 07:40 34.900805 -120.457151 314 710ft 64kts
25-Sep-17 07:41 34.907994 -120.468206 311 1222ft 66kts
25-Sep-17 07:42 34.914441 -120.463157 60 1675ft 65kts
25-Sep-17 07:43 34.919195 -120.453056 43 2200ft 52kts
25-Sep-17 07:44 34.924431 -120.443963 67 2631ft 53kts
25-Sep-17 07:45 34.927416 -120.433768 66 3042ft 52kts
25-Sep-17 07:46 34.930390 -120.423605 65 3443ft 52kts
25-Sep-17 07:47 34.933439 -120.413327 67 3821ft 53kts
25-Sep-17 07:48 34.936514 -120.402833 64 4214ft 52kts
25-Sep-17 07:49 34.939680 -120.392171 63 4590ft 52kts
25-Sep-17 07:50 34.942533 -120.382805 69 4922ft 52kts
25-Sep-17 07:51 34.947690 -120.365145 71 5511ft 54kts
25-Sep-17 07:52 34.954855 -120.340072 71 5493ft 108kts
25-Sep-17 07:53 34.963724 -120.309395 71 5478ft 107kts
25-Sep-17 07:54 34.972357 -120.279750 71 5478ft 106kts
25-Sep-17 07:55 34.979528 -120.255175 71 5478ft 106kts
25-Sep-17 07:56 34.988000 -120.226100 71 5479ft 106kts
25-Sep-17 07:57 34.996901 -120.195509 70 5480ft 106kts
25-Sep-17 07:58 35.006535 -120.162422 70 5481ft 106kts
25-Sep-17 07:59 35.016149 -120.129394 69 5482ft 106kts
25-Sep-17 08:00 35.025399 -120.097599 68 5483ft 106kts
25-Sep-17 08:01 35.035337 -120.063413 68 5484ft 107kts
25-Sep-17 08:02 35.045307 -120.029070 67 5485ft 108kts
25-Sep-17 08:03 35.054916 -119.995947 67 5498ft 108kts
25-Sep-17 08:04 35.064217 -119.963851 67 5504ft 108kts
25-Sep-17 08:05 35.073788 -119.930763 67 5503ft 108kts
25-Sep-17 08:06 35.083369 -119.897543 67 5503ft 108kts
25-Sep-17 08:07 35.093747 -119.863498 59 5503ft 107kts
25-Sep-17 08:08 35.105717 -119.834957 60 5505ft 108kts
25-Sep-17 08:09 35.118146 -119.805667 59 5505ft 108kts
25-Sep-17 08:10 35.130481 -119.776659 59 5506ft 108kts
25-Sep-17 08:11 35.143096 -119.747004 59 5507ft 109kts
25-Sep-17 08:12 35.155432 -119.718003 59 5512ft 108kts
25-Sep-17 08:13 35.167430 -119.689757 60 5516ft 107kts
25-Sep-17 08:14 35.175153 -119.671567 60 5519ft 107kts
25-Sep-17 08:15 35.184903 -119.648595 60 5522ft 107kts
25-Sep-17 08:16 35.196094 -119.622176 61 5480ft 108kts
25-Sep-17 08:17 35.205895 -119.599033 61 5484ft 106kts
25-Sep-17 08:18 35.218383 -119.569899 61 5489ft 106kts
25-Sep-17 08:19 35.231116 -119.540011 62 5493ft 106kts
25-Sep-17 08:20 35.240611 -119.517565 62 5496ft 106kts
25-Sep-17 08:21 35.249788 -119.495815 62 5496ft 106kts
25-Sep-17 08:22 35.259139 -119.473646 62 5496ft 106kts
25-Sep-17 08:23 35.268824 -119.450664 62 5496ft 106kts
25-Sep-17 08:24 35.279179 -119.426086 62 5496ft 106kts
25-Sep-17 08:25 35.289027 -119.402692 62 5496ft 106kts
25-Sep-17 08:26 35.300450 -119.375543 62 5496ft 106kts
25-Sep-17 08:27 35.311764 -119.348628 63 5496ft 106kts
25-Sep-17 08:28 35.321520 -119.325408 63 5497ft 106kts
25-Sep-17 08:29 35.331334 -119.302015 63 5497ft 106kts
25-Sep-17 08:30 35.341080 -119.278778 63 5497ft 106kts
25-Sep-17 08:31 35.351369 -119.254233 63 5497ft 106kts
25-Sep-17 08:32 35.361364 -119.230363 63 5497ft 106kts
25-Sep-17 08:33 35.370057 -119.208652 69 5169ft 108kts
25-Sep-17 08:34 35.377579 -119.185234 68 4408ft 115kts
25-Sep-17 08:35 35.386987 -119.163008 62 3771ft 115kts
25-Sep-17 08:36 35.394097 -119.140902 77 3182ft 114kts
25-Sep-17 08:37 35.401251 -119.119129 68 2675ft 113kts
25-Sep-17 08:38 35.407587 -119.097443 72 2187ft 112kts
25-Sep-17 08:39 35.410676 -119.073883 91 1409ft 112kts
25-Sep-17 08:40 35.413506 -119.050166 67 821ft 97kts
25-Sep-17 08:41 35.423720 -119.044346 322 714ft 68kts
25-Sep-17 08:42 35.433425 -119.055672 320 517ft 57kts
25-Sep-17 08:43 35.436288 -119.057712 68 510ft 0kts
25-Sep-17 08:44 35.436412 -119.057267 71 510ft 0kts
25-Sep-17 08:45 35.434667 -119.055085 136 510ft 20kts
25-Sep-17 08:46 35.432560 -119.052413 139 510ft 11kts
25-Sep-17 08:47 35.431402 -119.050126 43 510ft 11kts
25-Sep-17 08:48 35.431327 -119.048222 311 510ft 6kts
25-Sep-17 08:49 35.431329 -119.048321 232 510ft 0kts

Navigation Log

Ident Type
1. KSMX Airport
2. FLW Navaid
3. KBFL Airport